createdAt,value
2022-11-10T00:01:20.005Z,7.90
2022-11-10T00:04:06.400Z,7.90
2022-11-10T00:06:52.835Z,7.90
2022-11-10T00:09:39.646Z,8.00
2022-11-10T00:12:27.414Z,8.00
2022-11-10T00:15:31.440Z,8.00
2022-11-10T00:18:18.124Z,8.00
2022-11-10T00:21:06.762Z,8.00
2022-11-10T00:23:53.385Z,8.00
2022-11-10T00:26:39.841Z,7.90
2022-11-10T00:29:27.615Z,7.90
2022-11-10T00:32:13.822Z,7.90
2022-11-10T00:35:00.385Z,7.90
2022-11-10T00:37:46.802Z,7.90
2022-11-10T00:40:33.504Z,7.90
2022-11-10T00:43:26.216Z,7.90
2022-11-10T00:46:14.645Z,7.80
2022-11-10T00:49:01.456Z,7.80
2022-11-10T00:51:48.188Z,7.80
2022-11-10T00:54:34.603Z,7.80
2022-11-10T00:57:21.038Z,7.80
2022-11-10T01:00:10.113Z,7.90
2022-11-10T01:02:58.261Z,7.90
2022-11-10T01:05:45.695Z,7.90
2022-11-10T01:08:32.258Z,7.90
2022-11-10T01:11:20.904Z,7.90
2022-11-10T01:14:07.566Z,7.90
2022-11-10T01:16:53.930Z,7.90
2022-11-10T01:19:43.134Z,7.90
2022-11-10T01:22:29.727Z,7.90
2022-11-10T01:25:16.276Z,7.90
2022-11-10T01:28:03.053Z,8.00
2022-11-10T01:30:49.354Z,8.00
2022-11-10T01:33:36.197Z,8.00
2022-11-10T01:36:23.948Z,7.90
2022-11-10T01:39:10.344Z,8.00
2022-11-10T01:41:56.707Z,8.00
2022-11-10T01:44:43.546Z,8.00
2022-11-10T01:47:30.212Z,8.00
2022-11-10T01:50:17.141Z,8.00
2022-11-10T01:53:07.857Z,8.00
2022-11-10T01:55:56.012Z,8.10
2022-11-10T01:58:46.983Z,8.10
2022-11-10T02:01:33.529Z,8.10
2022-11-10T02:04:21.638Z,8.10
2022-11-10T02:07:09.299Z,8.10
2022-11-10T02:09:57.308Z,8.10
2022-11-10T02:12:44.732Z,8.20
2022-11-10T02:15:31.378Z,8.10
2022-11-10T02:18:18.033Z,8.10
2022-11-10T02:21:06.926Z,8.20
2022-11-10T02:23:54.996Z,8.20
2022-11-10T02:26:46.594Z,8.20
2022-11-10T02:29:32.957Z,8.20
2022-11-10T02:32:19.642Z,8.30
2022-11-10T02:35:06.956Z,8.20
2022-11-10T02:37:54.796Z,8.20
2022-11-10T02:40:41.688Z,8.20
2022-11-10T02:43:28.330Z,8.20
2022-11-10T02:46:14.798Z,8.20
2022-11-10T02:49:01.267Z,8.20
2022-11-10T02:51:47.477Z,8.20
2022-11-10T02:54:35.148Z,8.10
2022-11-10T02:57:21.532Z,8.20
2022-11-10T03:00:09.618Z,8.20
2022-11-10T03:02:57.750Z,8.20
2022-11-10T03:05:44.326Z,8.20
2022-11-10T03:08:30.757Z,8.20
2022-11-10T03:11:18.650Z,8.20
2022-11-10T03:14:05.017Z,8.20
2022-11-10T03:16:51.365Z,8.20
2022-11-10T03:19:37.827Z,8.10
2022-11-10T03:22:24.675Z,8.20
2022-11-10T03:25:12.768Z,8.20
2022-11-10T03:28:00.762Z,8.10
2022-11-10T03:30:47.500Z,8.10
2022-11-10T03:33:33.857Z,8.10
2022-11-10T03:36:20.228Z,8.20
2022-11-10T03:39:06.717Z,8.20
2022-11-10T03:41:53.788Z,8.20
2022-11-10T03:44:41.564Z,8.20
2022-11-10T03:47:28.086Z,8.20
2022-11-10T03:50:15.567Z,8.20
2022-11-10T03:53:02.747Z,8.20
2022-11-10T03:55:49.514Z,8.20
2022-11-10T03:58:36.861Z,8.20
2022-11-10T04:01:25.133Z,8.30
2022-11-10T04:04:33.571Z,8.20
2022-11-10T04:07:40.193Z,8.30
2022-11-10T04:10:26.884Z,8.20
2022-11-10T04:13:31.531Z,8.30
2022-11-10T04:16:18.269Z,8.20
2022-11-10T04:19:06.382Z,8.20
2022-11-10T04:21:53.508Z,8.20
2022-11-10T04:24:39.990Z,8.30
2022-11-10T04:27:26.556Z,8.30
2022-11-10T04:30:13.194Z,8.30
2022-11-10T04:32:59.496Z,8.30
2022-11-10T04:35:47.271Z,8.30
2022-11-10T04:38:33.812Z,8.30
2022-11-10T04:41:20.177Z,8.30
2022-11-10T04:44:06.804Z,8.40
2022-11-10T04:46:53.194Z,8.40
2022-11-10T04:49:39.844Z,8.40
2022-11-10T04:52:27.634Z,8.40
2022-11-10T04:55:14.308Z,8.40
2022-11-10T04:58:00.712Z,8.40
2022-11-10T05:00:47.217Z,8.40
2022-11-10T05:03:33.849Z,8.40
2022-11-10T05:06:20.618Z,8.40
2022-11-10T05:09:08.796Z,8.40
2022-11-10T05:11:55.115Z,8.40
2022-11-10T05:14:41.724Z,8.40
2022-11-10T05:17:28.261Z,8.40
2022-11-10T05:20:14.773Z,8.40
2022-11-10T05:23:18.911Z,8.40
2022-11-10T05:26:08.427Z,8.40
2022-11-10T05:28:54.942Z,8.40
2022-11-10T05:31:41.433Z,8.40
2022-11-10T05:34:27.750Z,8.40
2022-11-10T05:37:14.316Z,8.40
2022-11-10T05:40:00.787Z,8.40
2022-11-10T05:42:52.844Z,8.40
2022-11-10T05:45:39.787Z,8.40
2022-11-10T05:48:26.208Z,8.40
2022-11-10T05:51:12.559Z,8.40
2022-11-10T05:53:59.036Z,8.50
2022-11-10T05:56:45.970Z,8.50
2022-11-10T05:59:33.692Z,8.50
2022-11-10T06:02:20.119Z,8.50
2022-11-10T06:05:07.594Z,8.50
2022-11-10T06:07:54.317Z,8.50
2022-11-10T06:10:41.634Z,8.40
2022-11-10T06:13:29.322Z,8.50
2022-11-10T06:16:17.323Z,8.50
2022-11-10T06:19:04.125Z,8.50
2022-11-10T06:21:53.972Z,8.60
2022-11-10T06:24:45.401Z,8.60
2022-11-10T06:27:32.001Z,8.60
2022-11-10T06:30:18.712Z,8.60
2022-11-10T06:33:06.710Z,8.60
2022-11-10T06:35:53.986Z,8.60
2022-11-10T06:38:40.721Z,8.70
2022-11-10T06:41:27.077Z,8.70
2022-11-10T06:44:14.060Z,8.70
2022-11-10T06:47:00.780Z,8.80
2022-11-10T06:49:48.751Z,8.70
2022-11-10T06:52:35.266Z,8.70
2022-11-10T06:55:21.927Z,8.70
2022-11-10T06:58:08.349Z,8.80
2022-11-10T07:00:54.856Z,8.80
2022-11-10T07:04:05.138Z,8.70
2022-11-10T07:06:49.621Z,8.80
2022-11-10T07:09:36.173Z,8.90
2022-11-10T07:12:22.882Z,8.90
2022-11-10T07:15:10.941Z,9.00
2022-11-10T07:17:57.545Z,9.00
2022-11-10T07:20:43.936Z,9.00
2022-11-10T07:23:33.405Z,9.00
2022-11-10T07:26:20.132Z,9.00
2022-11-10T07:29:06.981Z,9.10
2022-11-10T07:31:53.978Z,9.10
2022-11-10T07:34:40.649Z,9.10
2022-11-10T07:37:27.137Z,9.20
2022-11-10T07:40:15.282Z,9.20
2022-11-10T07:43:02.448Z,9.30
2022-11-10T07:45:50.454Z,9.30
2022-11-10T07:48:37.132Z,9.30
2022-11-10T07:51:23.827Z,9.30
2022-11-10T07:54:10.711Z,9.40
2022-11-10T07:56:58.638Z,9.40
2022-11-10T07:59:45.143Z,9.40
2022-11-10T08:02:31.546Z,9.50
2022-11-10T08:05:17.945Z,9.50
2022-11-10T08:08:05.089Z,9.50
2022-11-10T08:10:51.824Z,9.50
2022-11-10T08:13:40.076Z,9.50
2022-11-10T08:16:26.589Z,9.50
2022-11-10T08:19:13.120Z,9.60
2022-11-10T08:21:59.451Z,9.60
2022-11-10T08:24:45.888Z,9.70
2022-11-10T08:27:32.493Z,9.70
2022-11-10T08:30:20.363Z,9.70
2022-11-10T08:33:09.363Z,9.70
2022-11-10T08:35:56.115Z,9.80
2022-11-10T08:38:43.034Z,9.90
2022-11-10T08:41:29.638Z,9.90
2022-11-10T08:44:20.663Z,9.90
2022-11-10T08:47:09.021Z,9.90
2022-11-10T08:49:55.707Z,10.00
2022-11-10T08:52:42.114Z,9.90
2022-11-10T08:55:29.182Z,10.00
2022-11-10T08:58:18.163Z,10.00
2022-11-10T09:01:09.203Z,10.00
2022-11-10T09:03:57.312Z,10.00
2022-11-10T09:06:43.925Z,10.10
2022-11-10T09:09:30.863Z,10.10
2022-11-10T09:12:17.485Z,10.10
2022-11-10T09:15:04.549Z,10.20
2022-11-10T09:17:51.046Z,10.20
2022-11-10T09:20:39.433Z,10.20
2022-11-10T09:23:26.460Z,10.20
2022-11-10T09:26:13.115Z,10.30
2022-11-10T09:28:59.764Z,10.30
2022-11-10T09:31:46.820Z,10.40
2022-11-10T09:34:33.410Z,10.40
2022-11-10T09:37:21.497Z,10.50
2022-11-10T09:40:13.239Z,10.50
2022-11-10T09:43:03.805Z,10.50
2022-11-10T09:45:54.855Z,10.60
2022-11-10T09:48:46.404Z,10.60
2022-11-10T09:51:36.870Z,10.70
2022-11-10T09:54:37.470Z,10.80
2022-11-10T09:57:26.898Z,10.70
2022-11-10T10:00:15.996Z,10.70
2022-11-10T10:03:04.297Z,10.70
2022-11-10T10:06:02.324Z,10.70
2022-11-10T10:09:05.000Z,10.80
2022-11-10T10:12:08.952Z,10.80
2022-11-10T10:15:08.798Z,10.90
2022-11-10T10:18:06.444Z,11.00
2022-11-10T10:21:07.534Z,11.00
2022-11-10T10:24:15.218Z,11.10
2022-11-10T10:27:11.555Z,11.10
2022-11-10T10:29:58.173Z,11.10
2022-11-10T10:32:44.719Z,11.20
2022-11-10T10:35:31.993Z,11.30
2022-11-10T10:38:24.107Z,11.30
2022-11-10T10:41:22.542Z,11.30
2022-11-10T10:44:14.730Z,11.30
2022-11-10T10:47:02.953Z,11.40
2022-11-10T10:49:49.605Z,11.50
2022-11-10T10:52:36.215Z,11.50
2022-11-10T10:55:30.138Z,11.60
2022-11-10T10:58:24.328Z,11.50
2022-11-10T11:01:27.493Z,11.60
2022-11-10T11:04:29.235Z,11.70
2022-11-10T11:07:23.362Z,11.80
2022-11-10T11:10:21.033Z,11.70
2022-11-10T11:13:22.124Z,11.70
2022-11-10T11:16:12.517Z,11.70
2022-11-10T11:19:00.680Z,11.80
2022-11-10T11:22:03.579Z,11.90
2022-11-10T11:24:57.776Z,11.90
2022-11-10T11:27:53.361Z,11.90
2022-11-10T11:30:48.971Z,11.90
2022-11-10T11:33:43.597Z,11.90
2022-11-10T11:36:42.630Z,11.80
2022-11-10T11:39:41.550Z,11.80
2022-11-10T11:42:42.925Z,11.80
2022-11-10T11:45:43.005Z,11.80
2022-11-10T11:48:49.845Z,11.90
2022-11-10T11:51:46.618Z,11.90
2022-11-10T11:54:49.114Z,12.00
2022-11-10T11:57:48.258Z,12.00
2022-11-10T12:00:44.887Z,12.00
2022-11-10T12:03:42.804Z,12.00
2022-11-10T12:06:41.809Z,12.00
2022-11-10T12:09:40.977Z,12.00
2022-11-10T12:12:43.980Z,12.00
2022-11-10T12:15:36.492Z,12.00
2022-11-10T12:18:31.580Z,11.90
2022-11-10T12:21:24.341Z,12.00
2022-11-10T12:24:22.702Z,12.00
2022-11-10T12:27:15.779Z,11.90
2022-11-10T12:30:05.746Z,12.00
2022-11-10T12:32:57.578Z,11.90
2022-11-10T12:35:47.134Z,11.90
2022-11-10T12:38:43.959Z,11.90
2022-11-10T12:41:40.429Z,11.80
2022-11-10T12:44:32.109Z,11.80
2022-11-10T12:47:21.287Z,11.90
2022-11-10T12:50:26.327Z,11.90
2022-11-10T12:53:21.062Z,11.90
2022-11-10T12:56:12.842Z,12.00
2022-11-10T12:59:21.205Z,12.00
2022-11-10T13:02:24.623Z,12.00
2022-11-10T13:05:26.036Z,11.90
2022-11-10T13:08:27.770Z,11.80
2022-11-10T13:11:25.298Z,11.70
2022-11-10T13:14:25.865Z,11.70
2022-11-10T13:17:32.301Z,11.60
2022-11-10T13:20:50.931Z,11.60
2022-11-10T13:24:19.700Z,11.60
2022-11-10T13:27:11.664Z,11.60
2022-11-10T13:30:01.053Z,11.60
2022-11-10T13:32:47.575Z,11.50
2022-11-10T13:35:55.285Z,11.50
2022-11-10T13:38:44.212Z,11.40
2022-11-10T13:41:35.521Z,11.50
2022-11-10T13:44:27.964Z,11.50
2022-11-10T13:47:48.998Z,11.40
2022-11-10T13:50:47.825Z,11.30
2022-11-10T13:53:47.482Z,11.30
2022-11-10T13:56:53.393Z,11.20
2022-11-10T13:59:48.917Z,11.20
2022-11-10T14:02:58.886Z,11.10
2022-11-10T14:06:09.686Z,11.20
2022-11-10T14:09:00.583Z,11.20
2022-11-10T14:11:51.523Z,11.20
2022-11-10T14:14:51.138Z,11.20
2022-11-10T14:17:43.100Z,11.20
2022-11-10T14:20:43.408Z,11.10
2022-11-10T14:23:35.618Z,11.10
2022-11-10T14:26:28.224Z,11.00
2022-11-10T14:29:22.886Z,10.80
2022-11-10T14:32:17.659Z,10.80
2022-11-10T14:35:05.170Z,10.60
2022-11-10T14:37:58.054Z,10.60
2022-11-10T14:40:44.828Z,10.40
2022-11-10T14:43:33.267Z,10.40
2022-11-10T14:46:25.612Z,10.30
2022-11-10T14:49:12.147Z,10.30
2022-11-10T14:52:01.380Z,10.20
2022-11-10T14:54:49.523Z,10.10
2022-11-10T14:57:36.049Z,10.10
2022-11-10T15:00:28.604Z,10.00
2022-11-10T15:03:18.904Z,9.90
2022-11-10T15:06:09.364Z,9.90
2022-11-10T15:08:56.237Z,9.80
2022-11-10T15:11:50.525Z,9.70
2022-11-10T15:14:44.671Z,9.70
2022-11-10T15:17:51.547Z,9.70
2022-11-10T15:20:39.995Z,9.60
2022-11-10T15:23:33.664Z,9.70
2022-11-10T15:26:22.685Z,9.70
2022-11-10T15:29:21.130Z,9.80
2022-11-10T15:32:15.900Z,9.80
2022-11-10T16:19:45.053Z,9.70
2022-11-10T16:22:31.451Z,9.30
2022-11-10T16:25:25.211Z,9.40
2022-11-10T16:28:18.433Z,9.40
2022-11-10T16:31:09.752Z,9.50
2022-11-10T16:33:56.474Z,9.50
2022-11-10T16:36:46.220Z,9.50
2022-11-10T16:39:32.625Z,9.60
2022-11-10T16:42:19.276Z,9.60
2022-11-10T16:45:06.295Z,9.60
2022-11-10T16:47:54.717Z,9.60
2022-11-10T16:50:41.428Z,9.50
2022-11-10T16:53:31.360Z,9.50
2022-11-10T16:56:20.643Z,9.50
2022-11-10T16:59:07.105Z,9.50
2022-11-10T17:01:55.078Z,9.50
2022-11-10T17:04:41.511Z,9.60
2022-11-10T17:07:28.870Z,9.50
2022-11-10T17:10:18.390Z,9.50
2022-11-10T17:13:05.312Z,9.50
2022-11-10T17:15:54.487Z,9.50
2022-11-10T17:18:41.356Z,9.40
2022-11-10T17:21:32.950Z,9.30
2022-11-10T17:24:19.846Z,9.30
2022-11-10T17:27:07.919Z,9.20
2022-11-10T17:29:54.527Z,9.20
2022-11-10T17:33:03.722Z,9.10
2022-11-10T17:35:50.208Z,9.00
2022-11-10T17:38:38.361Z,9.00
2022-11-10T17:41:24.820Z,8.80
2022-11-10T17:44:15.015Z,8.80
2022-11-10T17:47:01.324Z,8.80
2022-11-10T17:49:47.686Z,8.70
2022-11-10T17:52:34.203Z,8.60
2022-11-10T17:55:22.525Z,8.60
2022-11-10T17:58:10.132Z,8.60
2022-11-10T18:00:58.198Z,8.50
2022-11-10T18:03:44.616Z,8.50
2022-11-10T18:06:32.372Z,8.50
2022-11-10T18:09:19.077Z,8.40
2022-11-10T18:12:05.867Z,8.40
2022-11-10T18:14:52.365Z,8.40
2022-11-10T18:17:40.252Z,8.40
2022-11-10T18:20:26.714Z,8.40
2022-11-10T18:23:13.673Z,8.40
2022-11-10T18:26:05.188Z,8.30
2022-11-10T18:28:51.975Z,8.40
2022-11-10T18:31:38.892Z,8.30
2022-11-10T18:34:26.986Z,8.30
2022-11-10T18:37:19.752Z,8.20
2022-11-10T18:40:07.373Z,8.20
2022-11-10T18:42:57.053Z,8.10
2022-11-10T18:45:43.870Z,8.10
2022-11-10T18:48:34.692Z,8.00
2022-11-10T18:51:25.179Z,8.00
2022-11-10T18:54:12.088Z,8.00
2022-11-10T18:56:58.849Z,8.00
2022-11-10T18:59:45.606Z,8.00
2022-11-10T19:02:32.346Z,7.90
2022-11-10T19:05:19.041Z,7.90
2022-11-10T19:08:08.069Z,7.90
2022-11-10T19:10:55.145Z,7.90
2022-11-10T19:13:42.165Z,7.80
2022-11-10T19:16:30.056Z,7.80
2022-11-10T19:19:16.705Z,7.90
2022-11-10T19:22:03.379Z,7.80
2022-11-10T19:25:07.583Z,7.80
2022-11-10T19:27:55.014Z,7.80
2022-11-10T19:30:41.467Z,7.70
2022-11-10T19:33:34.936Z,7.70
2022-11-10T19:36:38.649Z,7.70
2022-11-10T19:39:25.669Z,7.60
2022-11-10T19:42:13.337Z,7.60
2022-11-10T19:45:00.505Z,7.60
2022-11-10T19:47:46.950Z,7.50
2022-11-10T19:50:33.490Z,7.50
2022-11-10T19:53:20.151Z,7.50
2022-11-10T19:56:08.692Z,7.40
2022-11-10T19:58:56.636Z,7.40
2022-11-10T20:01:43.377Z,7.40
2022-11-10T20:04:30.417Z,7.30
2022-11-10T20:07:34.554Z,7.30
2022-11-10T20:10:21.307Z,7.20
2022-11-10T20:13:08.045Z,7.20
2022-11-10T20:15:55.878Z,7.20
2022-11-10T20:18:42.927Z,7.10
2022-11-10T20:21:29.759Z,7.10
2022-11-10T20:24:16.434Z,7.10
2022-11-10T20:27:02.902Z,7.10
2022-11-10T20:29:49.196Z,7.10
2022-11-10T20:32:37.309Z,7.00
2022-11-10T20:35:24.270Z,7.10
2022-11-10T20:38:11.166Z,7.10
2022-11-10T20:41:09.113Z,7.10
2022-11-10T20:43:55.978Z,7.10
2022-11-10T20:46:54.558Z,7.10
2022-11-10T20:49:43.212Z,7.00
2022-11-10T20:52:29.690Z,7.00
2022-11-10T20:55:18.485Z,6.90
2022-11-10T20:58:05.737Z,6.90
2022-11-10T21:00:53.062Z,6.90
2022-11-10T21:03:39.910Z,6.90
2022-11-10T21:06:27.982Z,6.80
2022-11-10T21:09:14.764Z,6.80
2022-11-10T21:12:18.813Z,6.90
2022-11-10T21:15:06.215Z,6.90
2022-11-10T21:17:52.917Z,6.80
2022-11-10T21:20:39.283Z,6.80
2022-11-10T21:23:27.161Z,6.80
2022-11-10T21:26:13.700Z,6.80
2022-11-10T21:29:00.459Z,6.80
2022-11-10T21:31:46.924Z,6.80
2022-11-10T21:34:33.880Z,6.80
2022-11-10T21:37:20.378Z,6.80
2022-11-10T21:40:10.045Z,6.70
2022-11-10T21:42:56.950Z,6.70
2022-11-10T21:45:43.447Z,6.70
2022-11-10T21:48:29.979Z,6.70
2022-11-10T21:51:16.206Z,6.60
2022-11-10T21:54:02.750Z,6.60
2022-11-10T21:56:50.637Z,6.60
2022-11-10T21:59:37.121Z,6.60
2022-11-10T22:02:23.647Z,6.60
2022-11-10T22:05:10.426Z,6.60
2022-11-10T22:07:57.280Z,6.50
2022-11-10T22:11:15.700Z,6.50
2022-11-10T22:14:30.153Z,6.50
2022-11-10T22:17:34.595Z,6.40
2022-11-10T22:20:21.561Z,6.40
2022-11-10T22:23:07.966Z,6.30
2022-11-10T22:25:54.188Z,6.30
2022-11-10T22:28:41.147Z,6.30
2022-11-10T22:31:28.982Z,6.30
2022-11-10T22:34:15.410Z,6.30
2022-11-10T22:37:01.963Z,6.30
2022-11-10T22:40:05.944Z,6.30
2022-11-10T22:43:09.967Z,6.30
2022-11-10T22:45:56.572Z,6.30
2022-11-10T22:48:44.459Z,6.30
2022-11-10T22:51:32.534Z,6.30
2022-11-10T22:54:20.714Z,6.30
2022-11-10T22:57:07.222Z,6.30
2022-11-10T22:59:53.932Z,6.30
2022-11-10T23:02:40.563Z,6.30
2022-11-10T23:05:28.468Z,6.30
2022-11-10T23:08:14.918Z,6.30
2022-11-10T23:11:02.564Z,6.30
2022-11-10T23:13:50.653Z,6.30
2022-11-10T23:16:37.088Z,6.30
2022-11-10T23:19:23.662Z,6.30
2022-11-10T23:22:11.433Z,6.30
2022-11-10T23:24:58.413Z,6.30
2022-11-10T23:27:44.986Z,6.30
2022-11-10T23:30:31.430Z,6.30
2022-11-10T23:33:17.906Z,6.30
2022-11-10T23:36:04.843Z,6.20
2022-11-10T23:38:53.083Z,6.20
2022-11-10T23:41:39.575Z,6.20
2022-11-10T23:44:26.233Z,6.20
2022-11-10T23:47:12.639Z,6.20
2022-11-10T23:49:58.997Z,6.30
2022-11-10T23:52:45.523Z,6.30
2022-11-10T23:55:33.566Z,6.30
2022-11-10T23:58:20.289Z,6.30
